createdAt,value
2019-02-26T00:01:39.527Z,2.93
2019-02-26T00:04:10.758Z,2.84
2019-02-26T00:06:42.399Z,2.82
2019-02-26T00:09:18.168Z,2.86
2019-02-26T00:11:47.146Z,2.87
2019-02-26T00:14:20.374Z,2.79
2019-02-26T00:16:51.376Z,2.71
2019-02-26T00:19:22.146Z,2.83
2019-02-26T00:21:54.356Z,2.92
2019-02-26T00:24:25.633Z,2.89
2019-02-26T00:26:58.507Z,2.90
2019-02-26T00:29:32.034Z,2.84
2019-02-26T00:32:03.153Z,2.80
2019-02-26T00:34:34.665Z,2.83
2019-02-26T00:37:08.485Z,2.80
2019-02-26T00:39:39.658Z,2.84
2019-02-26T00:42:12.640Z,2.78
2019-02-26T00:44:43.893Z,2.71
2019-02-26T00:47:15.439Z,2.56
2019-02-26T00:49:48.403Z,2.58
2019-02-26T00:52:21.413Z,2.62
2019-02-26T00:54:53.611Z,2.59
2019-02-26T00:57:27.325Z,2.47
2019-02-26T01:00:00.719Z,2.39
2019-02-26T01:02:32.737Z,2.41
2019-02-26T01:05:06.306Z,2.37
2019-02-26T01:07:38.504Z,2.35
2019-02-26T01:10:11.649Z,2.27
2019-02-26T01:12:43.360Z,2.30
2019-02-26T01:15:16.547Z,2.25
2019-02-26T01:17:47.682Z,2.11
2019-02-26T01:20:19.634Z,2.09
2019-02-26T01:22:51.201Z,2.09
2019-02-26T01:25:22.922Z,2.13
2019-02-26T01:27:56.269Z,2.21
2019-02-26T01:30:29.404Z,2.03
2019-02-26T01:33:03.385Z,2.16
2019-02-26T01:35:35.590Z,2.02
2019-02-26T01:38:07.379Z,2.01
2019-02-26T01:40:41.489Z,2.04
2019-02-26T01:43:10.894Z,2.03
2019-02-26T01:45:44.007Z,2.17
2019-02-26T01:48:18.386Z,2.16
2019-02-26T01:50:49.037Z,2.07
2019-02-26T01:53:21.470Z,2.13
2019-02-26T01:55:53.360Z,2.09
2019-02-26T01:58:24.817Z,1.99
2019-02-26T02:00:57.525Z,2.01
2019-02-26T02:03:32.505Z,2.04
2019-02-26T02:06:01.517Z,2.00
2019-02-26T02:08:32.246Z,2.01
2019-02-26T02:11:04.823Z,2.00
2019-02-26T02:13:38.508Z,2.09
2019-02-26T02:16:09.044Z,2.05
2019-02-26T02:18:43.930Z,2.03
2019-02-26T02:21:14.625Z,2.09
2019-02-26T02:23:47.061Z,2.17
2019-02-26T02:26:18.956Z,2.05
2019-02-26T02:28:50.433Z,2.10
2019-02-26T02:31:21.931Z,2.13
2019-02-26T02:33:54.131Z,2.19
2019-02-26T02:36:26.464Z,2.16
2019-02-26T02:38:57.855Z,2.29
2019-02-26T02:41:29.093Z,2.17
2019-02-26T02:44:00.341Z,2.30
2019-02-26T02:46:31.541Z,2.21
2019-02-26T02:49:04.732Z,2.26
2019-02-26T02:51:37.158Z,2.33
2019-02-26T02:54:12.183Z,2.25
2019-02-26T02:56:44.383Z,2.27
2019-02-26T02:59:16.549Z,2.28
2019-02-26T03:01:51.325Z,2.28
2019-02-26T03:04:22.177Z,2.31
2019-02-26T03:06:55.584Z,2.34
2019-02-26T03:09:27.536Z,2.28
2019-02-26T03:11:59.092Z,2.27
2019-02-26T03:14:33.051Z,2.30
2019-02-26T03:17:05.655Z,2.28
2019-02-26T03:19:38.491Z,2.32
2019-02-26T03:22:12.686Z,2.29
2019-02-26T03:24:43.306Z,2.26
2019-02-26T03:27:14.444Z,2.31
2019-02-26T03:29:47.225Z,2.36
2019-02-26T03:32:18.987Z,2.20
2019-02-26T03:34:50.539Z,2.24
2019-02-26T03:37:23.273Z,2.14
2019-02-26T03:39:55.235Z,2.03
2019-02-26T03:42:27.345Z,1.89
2019-02-26T03:44:59.639Z,1.84
2019-02-26T03:47:31.173Z,1.71
2019-02-26T03:50:02.310Z,1.75
2019-02-26T03:52:33.688Z,1.72
2019-02-26T03:55:08.884Z,1.70
2019-02-26T03:57:43.638Z,1.59
2019-02-26T04:00:19.910Z,1.63
2019-02-26T04:02:52.138Z,1.63
2019-02-26T04:05:25.140Z,1.65
2019-02-26T04:07:58.945Z,1.57
2019-02-26T04:10:29.987Z,1.59
2019-02-26T04:13:01.539Z,1.61
2019-02-26T04:15:35.649Z,1.63
2019-02-26T04:18:05.569Z,1.69
2019-02-26T04:20:36.436Z,1.67
2019-02-26T04:23:08.956Z,1.68
2019-02-26T04:26:15.602Z,1.59
2019-02-26T04:28:47.926Z,1.62
2019-02-26T04:31:31.356Z,1.70
2019-02-26T04:34:08.456Z,1.66
2019-02-26T04:37:04.655Z,1.62
2019-02-26T04:39:50.252Z,1.60
2019-02-26T04:42:35.225Z,1.61
2019-02-26T04:45:13.016Z,1.85
2019-02-26T04:47:56.987Z,1.90
2019-02-26T04:50:28.894Z,1.95
2019-02-26T04:53:04.436Z,1.98
2019-02-26T04:55:36.087Z,2.05
2019-02-26T04:58:05.830Z,2.12
2019-02-26T05:00:38.666Z,2.10
2019-02-26T05:03:11.860Z,2.12
2019-02-26T05:05:43.050Z,2.04
2019-02-26T05:08:14.810Z,2.18
2019-02-26T05:10:49.843Z,2.21
2019-02-26T05:13:21.984Z,2.24
2019-02-26T05:15:53.574Z,2.16
2019-02-26T05:18:26.070Z,2.26
2019-02-26T05:20:59.193Z,2.30
2019-02-26T05:23:33.014Z,2.32
2019-02-26T05:28:41.813Z,2.14
2019-02-26T05:31:15.212Z,2.34
2019-02-26T05:33:49.572Z,2.67
2019-02-26T05:36:20.215Z,2.72
2019-02-26T05:38:54.053Z,2.64
2019-02-26T05:41:24.234Z,2.61
2019-02-26T05:43:58.366Z,2.46
2019-02-26T05:46:29.592Z,2.53
2019-02-26T05:49:02.906Z,2.61
2019-02-26T05:51:36.008Z,2.59
2019-02-26T05:54:08.994Z,2.93
2019-02-26T05:56:43.373Z,2.97
2019-02-26T05:59:15.475Z,3.07
2019-02-26T06:01:49.459Z,3.13
2019-02-26T06:04:20.811Z,3.18
2019-02-26T06:06:55.504Z,3.27
2019-02-26T06:09:27.976Z,3.40
2019-02-26T06:11:58.746Z,3.48
2019-02-26T06:14:32.756Z,3.53
2019-02-26T06:17:03.493Z,3.57
2019-02-26T06:19:37.730Z,3.60
2019-02-26T06:22:11.600Z,3.52
2019-02-26T06:24:41.929Z,3.39
2019-02-26T06:27:15.994Z,3.34
2019-02-26T06:29:46.509Z,3.25
2019-02-26T06:32:18.021Z,3.37
2019-02-26T06:34:49.169Z,3.27
2019-02-26T06:37:23.368Z,3.22
2019-02-26T06:39:55.665Z,3.54
2019-02-26T06:42:30.671Z,3.76
2019-02-26T06:45:03.416Z,3.86
2019-02-26T06:47:34.196Z,3.99
2019-02-26T06:50:10.543Z,3.98
2019-02-26T06:52:43.011Z,4.03
2019-02-26T06:55:15.923Z,3.95
2019-02-26T06:57:47.741Z,3.86
2019-02-26T07:00:22.291Z,3.90
2019-02-26T07:02:52.864Z,4.10
2019-02-26T07:05:24.649Z,4.14
2019-02-26T07:07:57.047Z,4.24
2019-02-26T07:10:31.410Z,4.31
2019-02-26T07:13:04.307Z,4.28
2019-02-26T07:15:35.520Z,4.25
2019-02-26T07:18:09.485Z,4.34
2019-02-26T07:20:46.520Z,4.21
2019-02-26T07:23:15.525Z,4.42
2019-02-26T07:25:46.847Z,4.29
2019-02-26T07:28:20.060Z,4.42
2019-02-26T07:30:50.558Z,4.22
2019-02-26T07:33:21.433Z,4.29
2019-02-26T07:35:54.409Z,4.32
2019-02-26T07:38:27.567Z,4.32
2019-02-26T07:40:59.574Z,4.22
2019-02-26T07:43:31.701Z,4.12
2019-02-26T07:46:03.053Z,4.18
2019-02-26T07:48:34.610Z,4.23
2019-02-26T07:51:05.475Z,4.33
2019-02-26T07:53:36.992Z,4.24
2019-02-26T07:56:08.740Z,4.18
2019-02-26T07:58:41.210Z,4.22
2019-02-26T08:01:13.393Z,4.13
2019-02-26T08:03:46.974Z,4.05
2019-02-26T08:06:18.852Z,4.23
2019-02-26T08:08:50.098Z,4.36
2019-02-26T08:11:21.648Z,4.47
2019-02-26T08:13:54.388Z,4.55
2019-02-26T08:16:27.684Z,4.72
2019-02-26T08:19:01.414Z,4.91
2019-02-26T08:21:32.772Z,4.79
2019-02-26T08:24:04.945Z,4.92
2019-02-26T08:26:38.122Z,4.84
2019-02-26T08:29:11.900Z,4.71
2019-02-26T08:31:46.696Z,4.62
2019-02-26T08:34:15.874Z,4.25
2019-02-26T08:36:46.952Z,4.39
2019-02-26T08:39:18.146Z,4.27
2019-02-26T08:41:59.319Z,4.28
2019-02-26T08:44:30.273Z,4.42
2019-02-26T08:47:06.169Z,4.63
2019-02-26T08:49:35.944Z,4.77
2019-02-26T08:52:08.098Z,4.91
2019-02-26T08:54:39.176Z,4.76
2019-02-26T08:57:11.979Z,4.85
2019-02-26T08:59:47.286Z,4.62
2019-02-26T09:02:18.956Z,4.57
2019-02-26T09:04:50.680Z,4.87
2019-02-26T09:07:23.810Z,5.02
2019-02-26T09:09:57.459Z,4.37
2019-02-26T09:12:28.194Z,4.72
2019-02-26T09:14:59.752Z,4.79
2019-02-26T09:17:32.484Z,4.88
2019-02-26T09:20:09.307Z,4.65
2019-02-26T09:22:36.893Z,4.87
2019-02-26T09:25:09.216Z,5.03
2019-02-26T09:27:43.067Z,4.97
2019-02-26T09:30:16.182Z,4.97
2019-02-26T09:32:47.480Z,4.60
2019-02-26T09:35:24.681Z,4.74
2019-02-26T09:37:55.513Z,4.77
2019-02-26T09:40:28.866Z,4.85
2019-02-26T09:43:00.114Z,4.78
2019-02-26T09:45:31.481Z,4.84
2019-02-26T09:48:02.354Z,5.07
2019-02-26T09:50:33.296Z,4.70
2019-02-26T09:53:04.713Z,4.69
2019-02-26T09:55:35.648Z,4.71
2019-02-26T09:58:06.619Z,4.65
2019-02-26T10:00:37.751Z,4.28
2019-02-26T10:03:11.073Z,4.57
2019-02-26T10:05:42.986Z,4.48
2019-02-26T10:08:14.639Z,4.61
2019-02-26T10:10:45.886Z,4.64
2019-02-26T10:13:18.280Z,4.75
2019-02-26T10:15:51.146Z,4.70
2019-02-26T10:18:23.841Z,4.97
2019-02-26T10:20:55.676Z,5.00
2019-02-26T10:23:29.050Z,5.09
2019-02-26T10:26:01.062Z,4.81
2019-02-26T10:28:37.329Z,5.17
2019-02-26T10:31:09.703Z,4.94
2019-02-26T10:33:43.171Z,4.89
2019-02-26T10:36:16.520Z,4.72
2019-02-26T10:38:50.330Z,4.39
2019-02-26T10:41:21.615Z,4.34
2019-02-26T10:43:53.267Z,4.21
2019-02-26T10:46:24.623Z,4.18
2019-02-26T10:48:56.281Z,4.42
2019-02-26T10:51:27.622Z,4.01
2019-02-26T10:54:00.006Z,3.78
2019-02-26T10:56:36.845Z,3.91
2019-02-26T10:59:08.660Z,3.23
2019-02-26T11:01:39.316Z,3.37
2019-02-26T11:04:11.017Z,3.05
2019-02-26T11:06:44.181Z,3.31
2019-02-26T11:09:17.545Z,3.23
2019-02-26T11:11:47.019Z,3.24
2019-02-26T11:14:19.447Z,3.30
2019-02-26T11:16:50.747Z,3.25
2019-02-26T11:19:21.796Z,3.17
2019-02-26T11:21:55.968Z,3.41
2019-02-26T11:24:28.198Z,3.50
2019-02-26T11:26:59.691Z,3.47
2019-02-26T11:29:34.063Z,3.35
2019-02-26T11:32:07.809Z,3.39
2019-02-26T11:34:39.368Z,3.35
2019-02-26T11:37:10.926Z,3.34
2019-02-26T11:39:42.270Z,3.29
2019-02-26T11:42:15.857Z,3.05
2019-02-26T11:44:46.708Z,3.11
2019-02-26T11:47:18.354Z,3.18
2019-02-26T11:49:50.448Z,3.43
2019-02-26T11:52:21.726Z,3.44
2019-02-26T11:54:52.710Z,3.27
2019-02-26T11:57:24.470Z,3.31
2019-02-26T11:59:57.051Z,3.29
2019-02-26T12:02:33.387Z,3.33
2019-02-26T12:05:02.882Z,3.21
2019-02-26T12:07:35.905Z,3.18
2019-02-26T12:10:14.750Z,3.11
2019-02-26T12:12:48.323Z,3.25
2019-02-26T12:15:19.059Z,3.49
2019-02-26T12:17:51.749Z,3.41
2019-02-26T12:20:24.310Z,3.38
2019-02-26T12:22:55.816Z,3.12
2019-02-26T12:25:27.108Z,3.39
2019-02-26T12:28:00.174Z,3.09
2019-02-26T12:30:34.479Z,3.36
2019-02-26T12:33:07.672Z,3.33
2019-02-26T12:35:40.618Z,3.40
2019-02-26T12:38:18.248Z,3.49
2019-02-26T12:40:47.164Z,3.52
2019-02-26T12:43:19.288Z,3.49
2019-02-26T12:45:52.016Z,3.41
2019-02-26T12:48:23.480Z,3.49
2019-02-26T12:50:55.641Z,3.50
2019-02-26T12:53:29.035Z,3.38
2019-02-26T12:56:09.014Z,3.22
2019-02-26T12:58:41.111Z,3.03
2019-02-26T13:01:13.365Z,3.11
2019-02-26T13:03:47.282Z,3.38
2019-02-26T13:06:19.479Z,3.24
2019-02-26T13:08:51.360Z,3.28
2019-02-26T13:11:24.880Z,3.07
2019-02-26T13:13:56.222Z,3.18
2019-02-26T13:16:27.933Z,3.11
2019-02-26T13:19:01.562Z,3.08
2019-02-26T13:21:32.401Z,2.97
2019-02-26T13:24:11.821Z,3.13
2019-02-26T13:26:37.037Z,3.14
2019-02-26T13:29:09.117Z,2.97
2019-02-26T13:31:43.259Z,2.85
2019-02-26T13:34:14.225Z,2.91
2019-02-26T13:36:48.985Z,3.06
2019-02-26T13:39:26.120Z,3.18
2019-02-26T13:41:58.475Z,3.19
2019-02-26T13:44:25.582Z,3.25
2019-02-26T13:46:57.348Z,2.98
2019-02-26T13:49:28.583Z,2.86
2019-02-26T13:52:00.141Z,2.83
2019-02-26T16:12:03.698Z,2.15
2019-02-26T16:14:35.264Z,2.11
2019-02-26T16:17:07.079Z,2.45
2019-02-26T16:19:38.976Z,2.39
2019-02-26T16:22:10.638Z,2.37
2019-02-26T16:24:42.383Z,2.23
2019-02-26T16:27:13.278Z,2.27
2019-02-26T16:29:46.135Z,2.33
2019-02-26T16:32:20.417Z,2.17
2019-02-26T16:34:53.509Z,2.19
2019-02-26T16:37:29.567Z,2.42
2019-02-26T16:40:02.654Z,2.39
2019-02-26T16:42:35.231Z,2.12
2019-02-26T16:45:09.754Z,2.01
2019-02-26T16:47:42.604Z,2.23
2019-02-26T16:50:19.823Z,2.23
2019-02-26T16:52:51.485Z,2.24
2019-02-26T16:55:22.244Z,2.22
2019-02-26T16:57:53.249Z,1.97
2019-02-26T17:00:32.608Z,2.12
2019-02-26T17:03:04.572Z,2.14
2019-02-26T17:05:35.907Z,2.10
2019-02-26T17:08:07.473Z,2.16
2019-02-26T17:10:38.698Z,2.25
2019-02-26T17:13:12.660Z,2.11
2019-02-26T17:15:43.846Z,1.96
2019-02-26T17:18:16.168Z,2.24
2019-02-26T17:20:49.934Z,2.03
2019-02-26T17:23:21.473Z,2.06
2019-02-26T17:25:52.032Z,2.01
2019-02-26T17:28:25.192Z,2.06
2019-02-26T17:30:57.776Z,2.12
2019-02-26T17:33:29.221Z,1.78
2019-02-26T17:36:02.007Z,1.91
2019-02-26T17:38:33.967Z,1.97
2019-02-26T17:41:05.630Z,2.11
2019-02-26T17:43:39.344Z,1.91
2019-02-26T17:46:10.997Z,2.01
2019-02-26T17:48:43.669Z,1.93
2019-02-26T17:51:18.761Z,1.83
2019-02-26T17:53:49.787Z,1.98
2019-02-26T17:56:20.972Z,1.99
2019-02-26T17:58:52.526Z,1.95
2019-02-26T18:01:24.225Z,2.03
2019-02-26T18:03:58.719Z,1.88
2019-02-26T18:06:30.161Z,1.78
2019-02-26T18:09:01.755Z,1.74
2019-02-26T18:11:36.541Z,1.70
2019-02-26T18:14:09.631Z,1.68
2019-02-26T18:16:41.686Z,1.70
2019-02-26T18:19:16.206Z,1.56
2019-02-26T18:21:47.386Z,1.60
2019-02-26T18:24:19.007Z,1.54
2019-02-26T18:26:51.903Z,1.61
2019-02-26T18:29:25.658Z,1.61
2019-02-26T18:31:57.350Z,1.61
2019-02-26T18:34:29.004Z,1.67
2019-02-26T18:36:59.769Z,1.59
2019-02-26T18:39:32.495Z,1.70
2019-02-26T18:42:07.597Z,1.76
2019-02-26T18:44:36.956Z,1.66
2019-02-26T18:47:09.016Z,1.61
2019-02-26T18:49:40.064Z,1.64
2019-02-26T18:52:15.844Z,1.57
2019-02-26T18:54:48.906Z,1.53
2019-02-26T18:57:20.354Z,1.65
2019-02-26T18:59:53.599Z,1.69
2019-02-26T19:02:25.269Z,1.66
2019-02-26T19:04:57.528Z,1.71
2019-02-26T19:07:33.798Z,1.73
2019-02-26T19:10:08.998Z,1.71
2019-02-26T19:12:41.369Z,1.79
2019-02-26T19:15:19.774Z,1.80
2019-02-26T19:17:53.288Z,1.76
2019-02-26T19:20:29.557Z,1.73
2019-02-26T19:23:02.092Z,1.78
2019-02-26T19:25:33.658Z,1.64
2019-02-26T19:28:05.510Z,1.73
2019-02-26T19:30:38.806Z,1.70
2019-02-26T19:33:10.448Z,1.76
2019-02-26T19:35:42.008Z,1.89
2019-02-26T19:38:12.973Z,1.83
2019-02-26T19:40:50.209Z,1.81
2019-02-26T19:43:23.781Z,1.81
2019-02-26T19:45:55.692Z,1.77
2019-02-26T19:48:30.390Z,1.65
2019-02-26T19:50:59.922Z,1.57
2019-02-26T19:53:34.429Z,1.71
2019-02-26T19:56:04.184Z,1.79
2019-02-26T19:58:36.008Z,1.88
2019-02-26T20:01:07.662Z,1.73
2019-02-26T20:03:40.329Z,1.75
2019-02-26T20:06:12.403Z,1.78
2019-02-26T20:08:43.886Z,1.81
2019-02-26T20:11:15.729Z,1.77
2019-02-26T20:13:47.586Z,1.86
2019-02-26T20:16:19.143Z,1.85
2019-02-26T20:18:52.188Z,1.82
2019-02-26T20:21:23.668Z,1.83
2019-02-26T20:23:55.328Z,1.94
2019-02-26T20:26:25.987Z,1.75
2019-02-26T20:28:56.887Z,1.87
2019-02-26T20:31:28.918Z,1.85
2019-02-26T20:34:00.093Z,1.82
2019-02-26T20:36:33.696Z,1.76
2019-02-26T20:39:07.992Z,1.75
2019-02-26T20:41:39.972Z,1.82
2019-02-26T20:44:11.229Z,1.68
2019-02-26T20:46:42.781Z,1.65
2019-02-26T20:49:13.920Z,1.76
2019-02-26T20:51:44.684Z,1.64
2019-02-26T20:54:17.171Z,1.69
2019-02-26T20:56:48.374Z,1.73
2019-02-26T20:59:19.244Z,1.70
2019-02-26T21:01:50.661Z,1.60
2019-02-26T21:04:21.801Z,1.62
2019-02-26T21:06:52.668Z,1.59
2019-02-26T21:09:23.884Z,1.60
2019-02-26T21:11:55.836Z,1.65
2019-02-26T21:14:27.600Z,1.64
2019-02-26T21:16:58.337Z,1.70
2019-02-26T21:19:29.371Z,1.53
2019-02-26T21:22:01.028Z,1.54
2019-02-26T21:24:34.666Z,1.49
2019-02-26T21:27:05.264Z,1.49
2019-02-26T21:29:38.929Z,1.51
2019-02-26T21:32:09.805Z,1.55
2019-02-26T21:34:42.887Z,1.53
2019-02-26T21:37:14.137Z,1.47
2019-02-26T21:39:44.898Z,1.47
2019-02-26T21:42:16.116Z,1.42
2019-02-26T21:44:47.663Z,1.46
2019-02-26T21:47:20.284Z,1.45
2019-02-26T21:49:53.558Z,1.50
2019-02-26T21:52:25.705Z,1.46
2019-02-26T21:54:58.192Z,1.47
2019-02-26T21:57:29.937Z,1.48
2019-02-26T22:00:05.130Z,1.29
2019-02-26T22:02:36.717Z,1.32
2019-02-26T22:05:09.796Z,1.26
2019-02-26T22:07:40.956Z,1.38
2019-02-26T22:10:14.973Z,1.43
2019-02-26T22:12:46.010Z,1.59
2019-02-26T22:15:18.171Z,1.52
2019-02-26T22:17:48.936Z,1.44
2019-02-26T22:20:33.005Z,1.71
2019-02-26T22:22:54.873Z,1.73
2019-02-26T22:25:26.227Z,1.63
2019-02-26T22:27:57.368Z,1.78
2019-02-26T22:30:28.233Z,1.63
2019-02-26T22:32:59.343Z,1.85
2019-02-26T22:35:30.110Z,1.74
2019-02-26T22:38:01.222Z,1.73
2019-02-26T22:40:34.217Z,1.78
2019-02-26T22:43:05.285Z,1.74
2019-02-26T22:45:36.117Z,1.53
2019-02-26T22:48:08.646Z,1.70
2019-02-26T22:50:39.906Z,1.58
2019-02-26T22:53:11.355Z,1.64
2019-02-26T22:55:42.025Z,1.64
2019-02-26T22:58:13.028Z,1.42
2019-02-26T23:00:53.694Z,1.57
2019-02-26T23:03:26.579Z,1.34
2019-02-26T23:05:59.023Z,1.46
2019-02-26T23:08:30.905Z,1.45
2019-02-26T23:11:02.379Z,1.36
2019-02-26T23:13:34.201Z,1.37
2019-02-26T23:16:05.774Z,1.46
2019-02-26T23:18:37.435Z,1.49
2019-02-26T23:21:08.194Z,1.50
2019-02-26T23:23:39.303Z,1.47
2019-02-26T23:26:10.651Z,1.27
2019-02-26T23:28:42.409Z,1.25
2019-02-26T23:31:13.964Z,1.35
2019-02-26T23:33:48.161Z,1.30
2019-02-26T23:36:17.885Z,1.32
2019-02-26T23:38:49.349Z,1.38
2019-02-26T23:41:20.474Z,1.35
2019-02-26T23:43:51.825Z,1.23
2019-02-26T23:46:22.541Z,1.19
2019-02-26T23:48:53.599Z,1.28
2019-02-26T23:51:24.823Z,1.23
2019-02-26T23:53:56.396Z,1.22
2019-02-26T23:56:28.097Z,1.25
2019-02-26T23:59:04.120Z,1.24
